Time;durP1;ratioP1;P1;durP2;ratioP2;P2;SDS_P1;SDS_P2;PMS_P1;PMS_P2;Temp;Humidity;BMP_temperature;BMP_pressure;BME280_temperature;BME280_humidity;BME280_pressure;Samples;Min_cycle;Max_cycle;Signal;HPM_P1;HPM_P2
2022/03/10 00:01:52;;;;;;;10.15;6.03;;;;;;;;;;20913181;28;20053;-56
2022/03/10 00:11:54;;;;;;;8.27;4.88;;;;;;;;;;20911798;28;20401;-58
2022/03/10 00:21:56;;;;;;;13.48;5.32;;;;;;;;;;20912197;28;20132;-58
2022/03/10 00:31:59;;;;;;;10.43;4.65;;;;;;;;;;20912230;28;20124;-56
2022/03/10 00:42:02;;;;;;;11.57;4.70;;;;;;;;;;20910753;28;20049;-56
2022/03/10 00:52:04;;;;;;;9.10;5.05;;;;;;;;;;20910169;28;20048;-56
2022/03/10 01:02:06;;;;;;;9.48;4.88;;;;;;;;;;20910185;28;20049;-57
2022/03/10 01:12:10;;;;;;;9.60;4.50;;;;;;;;;;20909819;28;20140;-57
2022/03/10 01:22:12;;;;;;;9.40;4.63;;;;;;;;;;20916792;28;20136;-57
2022/03/10 01:32:15;;;;;;;13.63;5.40;;;;;;;;;;20924047;28;20493;-57
2022/03/10 01:42:18;;;;;;;13.00;5.20;;;;;;;;;;20922854;28;20136;-57
2022/03/10 01:52:20;;;;;;;13.68;5.78;;;;;;;;;;20922140;28;20080;-56
2022/03/10 02:02:22;;;;;;;9.57;5.43;;;;;;;;;;20921601;28;20085;-56
2022/03/10 02:12:24;;;;;;;10.18;4.57;;;;;;;;;;20920700;28;20053;-56
2022/03/10 02:22:26;;;;;;;13.75;6.32;;;;;;;;;;20919781;28;20093;-56
2022/03/10 02:32:30;;;;;;;15.03;6.57;;;;;;;;;;20917952;28;20077;-55
2022/03/10 02:42:33;;;;;;;11.93;5.47;;;;;;;;;;20918014;28;20131;-56
2022/03/10 02:52:36;;;;;;;11.02;5.50;;;;;;;;;;20918234;28;20102;-56
2022/03/10 03:02:46;;;;;;;11.85;5.88;;;;;;;;;;20917200;28;20061;-57
2022/03/10 03:13:07;;;;;;;10.88;5.78;;;;;;;;;;20916820;28;20048;-57
2022/03/10 03:23:29;;;;;;;8.40;4.97;;;;;;;;;;20915743;28;20119;-57
2022/03/10 03:33:50;;;;;;;10.70;5.10;;;;;;;;;;20914038;28;20041;-55
2022/03/10 03:44:12;;;;;;;8.70;4.82;;;;;;;;;;20913635;28;20048;-56
2022/03/10 03:54:33;;;;;;;8.15;5.38;;;;;;;;;;20914038;28;20098;-56
2022/03/10 04:04:56;;;;;;;8.27;5.38;;;;;;;;;;20911844;28;20049;-55
2022/03/10 04:15:17;;;;;;;9.75;7.45;;;;;;;;;;20912335;28;20048;-57
2022/03/10 04:25:39;;;;;;;7.65;6.63;;;;;;;;;;20911553;28;20546;-56
2022/03/10 04:36:00;;;;;;;11.43;8.23;;;;;;;;;;20911910;28;20044;-57
2022/03/10 04:46:09;;;;;;;9.05;7.25;;;;;;;;;;20911442;28;20053;-58
2022/03/10 04:56:25;;;;;;;9.82;7.30;;;;;;;;;;20917170;28;20048;-56
2022/03/10 05:06:32;;;;;;;10.65;8.13;;;;;;;;;;20925835;28;20143;-58
2022/03/10 05:16:40;;;;;;;9.68;7.18;;;;;;;;;;20925058;28;20055;-57
2022/03/10 05:26:52;;;;;;;9.40;7.45;;;;;;;;;;20923901;28;20515;-56
2022/03/10 05:36:57;;;;;;;11.60;8.18;;;;;;;;;;20923789;28;20501;-59
2022/03/10 05:47:02;;;;;;;9.10;7.70;;;;;;;;;;20922992;28;20048;-57
2022/03/10 05:57:04;;;;;;;9.93;7.55;;;;;;;;;;20921910;28;20171;-56
2022/03/10 06:07:07;;;;;;;11.25;8.63;;;;;;;;;;20921741;28;20442;-55
2022/03/10 06:17:10;;;;;;;9.57;8.05;;;;;;;;;;20919805;28;20056;-55
2022/03/10 06:27:13;;;;;;;13.68;8.85;;;;;;;;;;20919271;28;20106;-56
2022/03/10 06:37:16;;;;;;;9.77;7.70;;;;;;;;;;20919061;28;20071;-57
2022/03/10 06:47:18;;;;;;;11.20;7.97;;;;;;;;;;20934399;28;20053;-57
2022/03/10 06:57:21;;;;;;;11.15;8.43;;;;;;;;;;20916925;28;20465;-56
2022/03/10 07:07:23;;;;;;;13.05;7.93;;;;;;;;;;20915513;28;20163;-57
2022/03/10 07:17:26;;;;;;;15.23;9.20;;;;;;;;;;20915093;28;20492;-57
2022/03/10 07:27:29;;;;;;;12.95;9.48;;;;;;;;;;20913656;28;20481;-57
2022/03/10 07:37:31;;;;;;;11.93;8.95;;;;;;;;;;20913324;28;20053;-57
2022/03/10 07:47:34;;;;;;;13.18;9.15;;;;;;;;;;20913697;28;20060;-57
2022/03/10 07:57:37;;;;;;;12.90;8.85;;;;;;;;;;20913253;28;20599;-58
2022/03/10 08:07:39;;;;;;;14.23;9.52;;;;;;;;;;20912862;28;20088;-56
2022/03/10 08:17:42;;;;;;;18.15;10.23;;;;;;;;;;20911904;28;20053;-56
2022/03/10 08:27:47;;;;;;;19.23;9.60;;;;;;;;;;20911918;28;20056;-57
2022/03/10 08:37:51;;;;;;;16.02;10.07;;;;;;;;;;20926841;28;20045;-57
2022/03/10 08:47:55;;;;;;;18.80;11.40;;;;;;;;;;20926839;28;20111;-57
2022/03/10 08:57:57;;;;;;;16.17;11.02;;;;;;;;;;20924738;28;20139;-56
2022/03/10 09:08:01;;;;;;;15.80;12.52;;;;;;;;;;20925797;28;20090;-56
2022/03/10 09:18:04;;;;;;;16.67;11.48;;;;;;;;;;20924383;28;20099;-57
2022/03/10 09:28:07;;;;;;;17.92;13.35;;;;;;;;;;20924415;28;20080;-56
2022/03/10 09:38:10;;;;;;;13.65;10.85;;;;;;;;;;20923242;28;20541;-57
2022/03/10 09:48:12;;;;;;;13.15;10.15;;;;;;;;;;20922524;28;20048;-57
2022/03/10 09:58:14;;;;;;;15.55;11.13;;;;;;;;;;20921969;28;20049;-56
2022/03/10 10:08:18;;;;;;;14.48;10.95;;;;;;;;;;20921007;28;20481;-56
2022/03/10 10:18:22;;;;;;;15.03;11.50;;;;;;;;;;20920000;28;20076;-58
2022/03/10 10:28:31;;;;;;;16.20;9.23;;;;;;;;;;20905840;28;20072;-58
2022/03/10 10:38:34;;;;;;;13.55;11.02;;;;;;;;;;20909947;28;20135;-58
2022/03/10 10:48:47;;;;;;;15.23;10.38;;;;;;;;;;20914786;28;20060;-63
2022/03/10 10:58:52;;;;;;;18.63;12.85;;;;;;;;;;20905623;28;20046;-61
2022/03/10 11:08:54;;;;;;;;;;;;;;;;;;20904736;28;20053;-59
2022/03/10 11:18:56;;;;;;;10.05;8.40;;;;;;;;;;20910481;28;19925;-58
2022/03/10 11:28:59;;;;;;;21.98;13.02;;;;;;;;;;20907265;28;20083;-58
2022/03/10 11:39:12;;;;;;;14.82;9.85;;;;;;;;;;20904151;28;20073;-58
2022/03/10 11:49:15;;;;;;;11.90;8.38;;;;;;;;;;20909676;28;20179;-58
2022/03/10 11:59:36;;;;;;;27.80;17.27;;;;;;;;;;20909385;28;20052;-56
2022/03/10 12:09:41;;;;;;;18.02;10.63;;;;;;;;;;20908364;28;20504;-59
2022/03/10 12:20:03;;;;;;;12.57;8.23;;;;;;;;;;20908250;28;20099;-60
2022/03/10 12:30:06;;;;;;;11.30;7.18;;;;;;;;;;20909300;28;20222;-62
2022/03/10 12:40:09;;;;;;;10.10;5.75;;;;;;;;;;20907994;28;20048;-58
2022/03/10 12:50:12;;;;;;;7.50;4.85;;;;;;;;;;20907935;28;20060;-56
2022/03/10 13:00:18;;;;;;;14.68;10.40;;;;;;;;;;20908734;28;20053;-55
2022/03/10 13:10:23;;;;;;;8.27;4.78;;;;;;;;;;20908844;28;20076;-59
2022/03/10 13:20:26;;;;;;;10.15;3.45;;;;;;;;;;20920430;28;20049;-62
2022/03/10 13:30:32;;;;;;;5.33;2.20;;;;;;;;;;20923514;28;20041;-61
2022/03/10 13:40:35;;;;;;;5.32;2.30;;;;;;;;;;20922438;28;20401;-60
2022/03/10 13:50:38;;;;;;;5.38;2.80;;;;;;;;;;20923212;28;20382;-59
2022/03/10 14:00:41;;;;;;;7.13;2.35;;;;;;;;;;20921780;28;20151;-60
2022/03/10 14:10:43;;;;;;;4.45;2.10;;;;;;;;;;20920615;28;20420;-61
2022/03/10 14:20:50;;;;;;;7.05;2.35;;;;;;;;;;20920101;28;20045;-61
2022/03/10 14:30:52;;;;;;;7.30;1.73;;;;;;;;;;20919694;28;20103;-61
2022/03/10 14:40:55;;;;;;;6.03;2.10;;;;;;;;;;20918714;28;20052;-59
2022/03/10 14:50:57;;;;;;;3.92;1.60;;;;;;;;;;20918912;28;20121;-58
2022/03/10 15:00:59;;;;;;;8.13;2.45;;;;;;;;;;20917700;28;20052;-59
2022/03/10 15:11:02;;;;;;;5.35;2.15;;;;;;;;;;20917301;28;20080;-60
2022/03/10 15:21:04;;;;;;;4.78;1.85;;;;;;;;;;20915914;28;20056;-61
2022/03/10 15:31:07;;;;;;;4.18;1.67;;;;;;;;;;20914642;28;20079;-63
2022/03/10 15:41:10;;;;;;;6.63;1.70;;;;;;;;;;20914440;28;20102;-61
2022/03/10 15:51:13;;;;;;;6.95;2.03;;;;;;;;;;20913634;28;20165;-60
2022/03/10 16:01:20;;;;;;;5.72;2.30;;;;;;;;;;20912637;28;20132;-64
2022/03/10 16:11:22;;;;;;;4.35;2.00;;;;;;;;;;20911652;28;20369;-61
2022/03/10 16:21:24;;;;;;;5.00;1.67;;;;;;;;;;20910738;28;20056;-60
2022/03/10 16:31:26;;;;;;;6.72;1.70;;;;;;;;;;20909912;28;20053;-62
2022/03/10 16:41:28;;;;;;;7.95;2.60;;;;;;;;;;20910177;28;20092;-63
2022/03/10 16:51:31;;;;;;;11.32;3.38;;;;;;;;;;20915475;28;20123;-61
2022/03/10 17:01:33;;;;;;;8.93;2.90;;;;;;;;;;20925467;28;20089;-55
2022/03/10 17:11:35;;;;;;;6.47;2.20;;;;;;;;;;20920588;28;20045;-61
2022/03/10 17:21:38;;;;;;;8.30;2.30;;;;;;;;;;20853151;28;20385;-62
2022/03/10 17:31:41;;;;;;;5.88;2.55;;;;;;;;;;20841344;28;20473;-65
2022/03/10 17:41:44;;;;;;;3.28;1.52;;;;;;;;;;20841036;28;20140;-59
2022/03/10 17:51:46;;;;;;;6.40;3.25;;;;;;;;;;20839651;28;20073;-68
2022/03/10 18:01:48;;;;;;;6.53;2.45;;;;;;;;;;20837603;28;20057;-63
2022/03/10 18:11:50;;;;;;;8.95;2.95;;;;;;;;;;20871418;28;20049;-57
2022/03/10 18:21:53;;;;;;;5.13;1.98;;;;;;;;;;20910664;28;20425;-60
2022/03/10 18:31:55;;;;;;;11.73;2.50;;;;;;;;;;20907630;28;20425;-58
2022/03/10 18:41:59;;;;;;;6.90;2.58;;;;;;;;;;20896597;28;20059;-60
2022/03/10 18:52:02;;;;;;;11.77;6.00;;;;;;;;;;20878291;28;20060;-70
2022/03/10 19:02:04;;;;;;;7.32;2.47;;;;;;;;;;20845478;28;20057;-69
2022/03/10 19:12:07;;;;;;;6.03;3.00;;;;;;;;;;20833377;28;20111;-56
2022/03/10 19:22:08;;;;;;;12.38;3.25;;;;;;;;;;20877285;28;20075;-56
2022/03/10 19:32:11;;;;;;;7.22;3.20;;;;;;;;;;20914396;28;20076;-59
2022/03/10 19:42:12;;;;;;;8.00;3.63;;;;;;;;;;20911093;28;20059;-55
2022/03/10 19:52:15;;;;;;;13.93;5.90;;;;;;;;;;20883700;28;20074;-58
2022/03/10 20:02:17;;;;;;;12.65;5.55;;;;;;;;;;20912433;28;21046;-60
2022/03/10 20:12:19;;;;;;;9.82;4.57;;;;;;;;;;20911583;28;20053;-60
2022/03/10 20:22:21;;;;;;;13.68;5.03;;;;;;;;;;20926920;28;20103;-60
2022/03/10 20:32:23;;;;;;;18.08;6.65;;;;;;;;;;20938337;28;20090;-59
2022/03/10 20:42:25;;;;;;;16.45;6.55;;;;;;;;;;20937893;28;20045;-60
2022/03/10 20:52:27;;;;;;;13.27;7.35;;;;;;;;;;20937750;28;20540;-61
2022/03/10 21:02:29;;;;;;;19.20;8.50;;;;;;;;;;20937382;28;20049;-61
2022/03/10 21:12:31;;;;;;;14.88;5.97;;;;;;;;;;20937883;28;20077;-60
2022/03/10 21:22:34;;;;;;;16.48;6.35;;;;;;;;;;20937226;28;20085;-61
2022/03/10 21:32:36;;;;;;;13.82;5.32;;;;;;;;;;20937633;28;20571;-61
2022/03/10 21:42:39;;;;;;;34.47;19.13;;;;;;;;;;20923515;28;20106;-60
2022/03/10 21:52:41;;;;;;;16.40;5.72;;;;;;;;;;20921089;28;20131;-62
2022/03/10 22:02:44;;;;;;;15.63;6.40;;;;;;;;;;20921727;28;20389;-60
2022/03/10 22:12:47;;;;;;;13.40;5.90;;;;;;;;;;20922237;28;20052;-61
2022/03/10 22:22:49;;;;;;;15.55;6.90;;;;;;;;;;20920875;28;20057;-60
2022/03/10 22:32:51;;;;;;;12.55;6.85;;;;;;;;;;20919518;28;20499;-59
2022/03/10 22:42:53;;;;;;;13.25;6.93;;;;;;;;;;20918296;28;20139;-59
2022/03/10 23:03:16;;;;;;;13.25;7.22;;;;;;;;;;20916864;28;20120;-59
2022/03/10 23:13:18;;;;;;;15.52;6.82;;;;;;;;;;20916112;28;20131;-60
2022/03/10 23:23:20;;;;;;;15.30;7.32;;;;;;;;;;20915989;28;20416;-60
2022/03/10 23:33:22;;;;;;;12.52;6.97;;;;;;;;;;20914626;28;20049;-59
2022/03/10 23:43:24;;;;;;;12.25;6.70;;;;;;;;;;20914303;28;20058;-59
2022/03/10 23:53:26;;;;;;;12.73;6.60;;;;;;;;;;20914110;28;20048;-60
